sensor_id;sensor_type;location;lat;lon;timestamp;pressure;altitude;pressure_sealevel;temperature;humidity
21658;BME280;10990;48.174;9.782;2023-02-04T00:00:00;93441.03;;;4.50;100.00
21658;BME280;10990;48.174;9.782;2023-02-04T00:02:27;93441.22;;;4.48;100.00
21658;BME280;10990;48.174;9.782;2023-02-04T00:04:55;93436.47;;;4.44;100.00
21658;BME280;10990;48.174;9.782;2023-02-04T00:07:21;93414.88;;;4.50;100.00
21658;BME280;10990;48.174;9.782;2023-02-04T00:09:49;93408.47;;;4.53;100.00
21658;BME280;10990;48.174;9.782;2023-02-04T00:12:16;93398.00;;;4.53;100.00
21658;BME280;10990;48.174;9.782;2023-02-04T00:14:43;93399.00;;;4.52;100.00
21658;BME280;10990;48.174;9.782;2023-02-04T00:17:10;93389.81;;;4.56;100.00
21658;BME280;10990;48.174;9.782;2023-02-04T00:19:38;93384.59;;;4.56;100.00
21658;BME280;10990;48.174;9.782;2023-02-04T00:22:06;93374.78;;;4.58;100.00
21658;BME280;10990;48.174;9.782;2023-02-04T00:24:33;93371.16;;;4.59;100.00
21658;BME280;10990;48.174;9.782;2023-02-04T00:27:00;93367.09;;;4.56;100.00
21658;BME280;10990;48.174;9.782;2023-02-04T00:29:27;93343.19;;;4.59;100.00
21658;BME280;10990;48.174;9.782;2023-02-04T00:31:54;93341.91;;;4.55;100.00
21658;BME280;10990;48.174;9.782;2023-02-04T00:34:21;93338.13;;;4.58;100.00
21658;BME280;10990;48.174;9.782;2023-02-04T00:36:48;93329.81;;;4.54;100.00
21658;BME280;10990;48.174;9.782;2023-02-04T00:39:16;93316.53;;;4.56;100.00
21658;BME280;10990;48.174;9.782;2023-02-04T00:41:43;93306.72;;;4.58;100.00
21658;BME280;10990;48.174;9.782;2023-02-04T00:44:10;93305.72;;;4.59;100.00
21658;BME280;10990;48.174;9.782;2023-02-04T00:46:38;93293.75;;;4.64;100.00
21658;BME280;10990;48.174;9.782;2023-02-04T00:49:05;93295.75;;;4.62;100.00
21658;BME280;10990;48.174;9.782;2023-02-04T00:51:36;93288.50;;;4.64;100.00
21658;BME280;10990;48.174;9.782;2023-02-04T00:54:04;93280.97;;;4.69;100.00
21658;BME280;10990;48.174;9.782;2023-02-04T00:56:33;93284.94;;;4.65;100.00
21658;BME280;10990;48.174;9.782;2023-02-04T00:59:00;93286.25;;;4.61;100.00
21658;BME280;10990;48.174;9.782;2023-02-04T01:01:26;93286.91;;;4.63;100.00
21658;BME280;10990;48.174;9.782;2023-02-04T01:03:53;93278.03;;;4.64;100.00
21658;BME280;10990;48.174;9.782;2023-02-04T01:06:21;93290.09;;;4.51;100.00
21658;BME280;10990;48.174;9.782;2023-02-04T01:08:48;93271.41;;;4.54;100.00
21658;BME280;10990;48.174;9.782;2023-02-04T01:11:15;93252.09;;;4.55;100.00
21658;BME280;10990;48.174;9.782;2023-02-04T01:13:43;93249.38;;;4.48;100.00
21658;BME280;10990;48.174;9.782;2023-02-04T01:16:11;93239.50;;;4.50;100.00
21658;BME280;10990;48.174;9.782;2023-02-04T01:18:38;93229.59;;;4.45;100.00
21658;BME280;10990;48.174;9.782;2023-02-04T01:21:05;93197.47;;;4.52;100.00
21658;BME280;10990;48.174;9.782;2023-02-04T01:23:32;93184.28;;;4.45;100.00
21658;BME280;10990;48.174;9.782;2023-02-04T01:25:59;93177.69;;;4.49;100.00
21658;BME280;10990;48.174;9.782;2023-02-04T01:28:26;93168.25;;;4.48;100.00
21658;BME280;10990;48.174;9.782;2023-02-04T01:30:54;93145.94;;;4.52;100.00
21658;BME280;10990;48.174;9.782;2023-02-04T01:33:21;93140.78;;;4.44;100.00
21658;BME280;10990;48.174;9.782;2023-02-04T01:35:49;93117.75;;;4.39;100.00
21658;BME280;10990;48.174;9.782;2023-02-04T01:38:15;93093.66;;;4.44;100.00
21658;BME280;10990;48.174;9.782;2023-02-04T01:40:42;93079.63;;;4.45;100.00
21658;BME280;10990;48.174;9.782;2023-02-04T01:43:10;93084.56;;;4.40;100.00
21658;BME280;10990;48.174;9.782;2023-02-04T01:45:37;93054.78;;;4.41;100.00
21658;BME280;10990;48.174;9.782;2023-02-04T01:48:06;93067.50;;;4.44;100.00
21658;BME280;10990;48.174;9.782;2023-02-04T01:50:33;93046.84;;;4.49;100.00
21658;BME280;10990;48.174;9.782;2023-02-04T01:53:00;93033.78;;;4.49;100.00
21658;BME280;10990;48.174;9.782;2023-02-04T01:55:30;93031.50;;;4.46;100.00
21658;BME280;10990;48.174;9.782;2023-02-04T01:57:58;93035.03;;;4.53;100.00
21658;BME280;10990;48.174;9.782;2023-02-04T02:00:29;93039.28;;;4.54;100.00
21658;BME280;10990;48.174;9.782;2023-02-04T02:02:57;93037.94;;;4.58;100.00
21658;BME280;10990;48.174;9.782;2023-02-04T02:05:28;93048.94;;;4.54;100.00
21658;BME280;10990;48.174;9.782;2023-02-04T02:07:59;93047.59;;;4.58;100.00
21658;BME280;10990;48.174;9.782;2023-02-04T02:10:27;93049.47;;;4.49;100.00
21658;BME280;10990;48.174;9.782;2023-02-04T02:12:55;93035.88;;;4.54;100.00
21658;BME280;10990;48.174;9.782;2023-02-04T02:15:22;93036.22;;;4.51;100.00
21658;BME280;10990;48.174;9.782;2023-02-04T02:17:49;93029.28;;;4.58;100.00
21658;BME280;10990;48.174;9.782;2023-02-04T02:20:17;93024.41;;;4.55;100.00
21658;BME280;10990;48.174;9.782;2023-02-04T02:22:57;93018.53;;;4.53;100.00
21658;BME280;10990;48.174;9.782;2023-02-04T02:25:27;93013.56;;;4.58;100.00
21658;BME280;10990;48.174;9.782;2023-02-04T02:27:54;93013.03;;;4.62;100.00
21658;BME280;10990;48.174;9.782;2023-02-04T02:30:21;92997.16;;;4.64;100.00
21658;BME280;10990;48.174;9.782;2023-02-04T02:32:49;92995.97;;;4.66;100.00
21658;BME280;10990;48.174;9.782;2023-02-04T02:35:16;92993.34;;;4.66;100.00
21658;BME280;10990;48.174;9.782;2023-02-04T02:37:43;92971.31;;;4.76;100.00
21658;BME280;10990;48.174;9.782;2023-02-04T02:40:12;92977.75;;;4.73;100.00
21658;BME280;10990;48.174;9.782;2023-02-04T02:42:41;92976.03;;;4.65;100.00
21658;BME280;10990;48.174;9.782;2023-02-04T02:45:24;92981.44;;;4.64;100.00
21658;BME280;10990;48.174;9.782;2023-02-04T02:47:52;92975.03;;;4.66;100.00
21658;BME280;10990;48.174;9.782;2023-02-04T02:50:21;92972.06;;;4.69;100.00
21658;BME280;10990;48.174;9.782;2023-02-04T02:52:50;92969.81;;;4.66;100.00
21658;BME280;10990;48.174;9.782;2023-02-04T02:55:19;92950.75;;;4.72;100.00
21658;BME280;10990;48.174;9.782;2023-02-04T02:57:48;92956.34;;;4.69;100.00
21658;BME280;10990;48.174;9.782;2023-02-04T03:00:19;92951.84;;;4.63;100.00
21658;BME280;10990;48.174;9.782;2023-02-04T03:02:52;92937.41;;;4.67;100.00
21658;BME280;10990;48.174;9.782;2023-02-04T03:05:20;92925.41;;;4.73;100.00
21658;BME280;10990;48.174;9.782;2023-02-04T03:07:47;92919.97;;;4.75;100.00
21658;BME280;10990;48.174;9.782;2023-02-04T03:10:15;92921.16;;;4.72;100.00
21658;BME280;10990;48.174;9.782;2023-02-04T03:12:42;92920.97;;;4.74;100.00
21658;BME280;10990;48.174;9.782;2023-02-04T03:15:11;92910.56;;;4.80;100.00
21658;BME280;10990;48.174;9.782;2023-02-04T03:17:38;92891.16;;;4.89;100.00
21658;BME280;10990;48.174;9.782;2023-02-04T03:20:05;92890.00;;;4.77;100.00
21658;BME280;10990;48.174;9.782;2023-02-04T03:22:33;92933.88;;;4.60;100.00
21658;BME280;10990;48.174;9.782;2023-02-04T03:25:00;92929.28;;;4.62;100.00
21658;BME280;10990;48.174;9.782;2023-02-04T03:27:28;92903.81;;;4.71;100.00
21658;BME280;10990;48.174;9.782;2023-02-04T03:29:55;92916.81;;;4.64;100.00
21658;BME280;10990;48.174;9.782;2023-02-04T03:32:24;92908.88;;;4.72;100.00
21658;BME280;10990;48.174;9.782;2023-02-04T03:34:50;92915.28;;;4.70;100.00
21658;BME280;10990;48.174;9.782;2023-02-04T03:37:17;92919.25;;;4.66;100.00
21658;BME280;10990;48.174;9.782;2023-02-04T03:39:44;92928.13;;;4.65;100.00
21658;BME280;10990;48.174;9.782;2023-02-04T03:42:10;92927.28;;;4.64;100.00
21658;BME280;10990;48.174;9.782;2023-02-04T03:44:37;92933.06;;;4.60;100.00
21658;BME280;10990;48.174;9.782;2023-02-04T03:47:04;92960.94;;;4.53;100.00
21658;BME280;10990;48.174;9.782;2023-02-04T03:49:32;92955.81;;;4.59;100.00
21658;BME280;10990;48.174;9.782;2023-02-04T03:52:00;92965.28;;;4.60;100.00
21658;BME280;10990;48.174;9.782;2023-02-04T03:54:27;92957.59;;;4.59;100.00
21658;BME280;10990;48.174;9.782;2023-02-04T03:56:54;92959.59;;;4.57;100.00
21658;BME280;10990;48.174;9.782;2023-02-04T03:59:20;92975.47;;;4.55;100.00
21658;BME280;10990;48.174;9.782;2023-02-04T04:01:47;92973.66;;;4.56;100.00
21658;BME280;10990;48.174;9.782;2023-02-04T04:04:14;92961.88;;;4.60;100.00
21658;BME280;10990;48.174;9.782;2023-02-04T04:06:42;92982.34;;;4.56;100.00
21658;BME280;10990;48.174;9.782;2023-02-04T04:09:09;92965.38;;;4.67;100.00
21658;BME280;10990;48.174;9.782;2023-02-04T04:11:35;92953.94;;;4.68;100.00
21658;BME280;10990;48.174;9.782;2023-02-04T04:14:02;92949.22;;;4.63;100.00
21658;BME280;10990;48.174;9.782;2023-02-04T04:16:29;92955.00;;;4.59;100.00
21658;BME280;10990;48.174;9.782;2023-02-04T04:18:55;92951.75;;;4.57;100.00
21658;BME280;10990;48.174;9.782;2023-02-04T04:21:22;92935.78;;;4.66;100.00
21658;BME280;10990;48.174;9.782;2023-02-04T04:23:50;92940.63;;;4.69;100.00
21658;BME280;10990;48.174;9.782;2023-02-04T04:26:17;92943.25;;;4.69;100.00
21658;BME280;10990;48.174;9.782;2023-02-04T04:28:44;92941.66;;;4.68;100.00
21658;BME280;10990;48.174;9.782;2023-02-04T04:31:11;92953.56;;;4.71;100.00
21658;BME280;10990;48.174;9.782;2023-02-04T04:33:37;92970.97;;;4.64;100.00
21658;BME280;10990;48.174;9.782;2023-02-04T04:36:05;92967.25;;;4.58;100.00
21658;BME280;10990;48.174;9.782;2023-02-04T04:38:32;92978.91;;;4.56;100.00
21658;BME280;10990;48.174;9.782;2023-02-04T04:41:00;92982.97;;;4.58;100.00
21658;BME280;10990;48.174;9.782;2023-02-04T04:43:27;92988.84;;;4.60;100.00
21658;BME280;10990;48.174;9.782;2023-02-04T04:45:54;92978.81;;;4.64;100.00
21658;BME280;10990;48.174;9.782;2023-02-04T04:48:20;92975.69;;;4.68;100.00
21658;BME280;10990;48.174;9.782;2023-02-04T04:50:48;92982.34;;;4.71;100.00
21658;BME280;10990;48.174;9.782;2023-02-04T04:53:14;92991.75;;;4.65;100.00
21658;BME280;10990;48.174;9.782;2023-02-04T04:55:41;92991.03;;;4.71;100.00
21658;BME280;10990;48.174;9.782;2023-02-04T04:58:09;93005.19;;;4.62;100.00
21658;BME280;10990;48.174;9.782;2023-02-04T05:00:36;93015.81;;;4.61;100.00
21658;BME280;10990;48.174;9.782;2023-02-04T05:03:03;93026.75;;;4.64;100.00
21658;BME280;10990;48.174;9.782;2023-02-04T05:05:30;93034.78;;;4.63;100.00
21658;BME280;10990;48.174;9.782;2023-02-04T05:07:56;93056.81;;;4.54;100.00
21658;BME280;10990;48.174;9.782;2023-02-04T05:10:23;93055.63;;;4.56;100.00
21658;BME280;10990;48.174;9.782;2023-02-04T05:12:50;93059.97;;;4.64;100.00
21658;BME280;10990;48.174;9.782;2023-02-04T05:15:18;93071.78;;;4.60;100.00
21658;BME280;10990;48.174;9.782;2023-02-04T05:17:45;93080.00;;;4.57;100.00
21658;BME280;10990;48.174;9.782;2023-02-04T05:20:12;93085.03;;;4.58;100.00
21658;BME280;10990;48.174;9.782;2023-02-04T05:22:38;93107.75;;;4.43;100.00
21658;BME280;10990;48.174;9.782;2023-02-04T05:25:05;93116.41;;;4.43;100.00
21658;BME280;10990;48.174;9.782;2023-02-04T05:27:32;93126.06;;;4.43;100.00
21658;BME280;10990;48.174;9.782;2023-02-04T05:29:59;93131.66;;;4.40;100.00
21658;BME280;10990;48.174;9.782;2023-02-04T05:32:27;93137.84;;;4.39;100.00
21658;BME280;10990;48.174;9.782;2023-02-04T05:34:54;93124.25;;;4.43;100.00
21658;BME280;10990;48.174;9.782;2023-02-04T05:37:20;93144.38;;;4.43;100.00
21658;BME280;10990;48.174;9.782;2023-02-04T05:39:47;93133.88;;;4.51;100.00
21658;BME280;10990;48.174;9.782;2023-02-04T05:42:14;93141.22;;;4.47;100.00
21658;BME280;10990;48.174;9.782;2023-02-04T05:44:40;93138.75;;;4.54;100.00
21658;BME280;10990;48.174;9.782;2023-02-04T05:47:07;93151.84;;;4.54;100.00
21658;BME280;10990;48.174;9.782;2023-02-04T05:49:35;93167.94;;;4.43;100.00
21658;BME280;10990;48.174;9.782;2023-02-04T05:52:02;93186.31;;;4.35;100.00
21658;BME280;10990;48.174;9.782;2023-02-04T05:54:29;93197.88;;;4.40;100.00
21658;BME280;10990;48.174;9.782;2023-02-04T05:56:55;93197.53;;;4.43;100.00
21658;BME280;10990;48.174;9.782;2023-02-04T05:59:22;93223.59;;;4.37;100.00
21658;BME280;10990;48.174;9.782;2023-02-04T06:01:49;93244.91;;;4.25;100.00
21658;BME280;10990;48.174;9.782;2023-02-04T06:04:16;93244.06;;;4.25;100.00
21658;BME280;10990;48.174;9.782;2023-02-04T06:06:44;93266.47;;;4.19;100.00
21658;BME280;10990;48.174;9.782;2023-02-04T06:09:11;93280.25;;;4.13;100.00
21658;BME280;10990;48.174;9.782;2023-02-04T06:11:38;93288.28;;;4.12;100.00
21658;BME280;10990;48.174;9.782;2023-02-04T06:14:05;93302.53;;;4.01;100.00
21658;BME280;10990;48.174;9.782;2023-02-04T06:16:32;93308.38;;;4.11;100.00
21658;BME280;10990;48.174;9.782;2023-02-04T06:18:58;93324.59;;;3.98;100.00
21658;BME280;10990;48.174;9.782;2023-02-04T06:21:25;93310.81;;;4.13;100.00
21658;BME280;10990;48.174;9.782;2023-02-04T06:23:53;93329.47;;;4.01;100.00
21658;BME280;10990;48.174;9.782;2023-02-04T06:26:20;93338.00;;;4.03;100.00
21658;BME280;10990;48.174;9.782;2023-02-04T06:28:47;93343.56;;;3.92;100.00
21658;BME280;10990;48.174;9.782;2023-02-04T06:31:13;93343.06;;;3.97;100.00
21658;BME280;10990;48.174;9.782;2023-02-04T06:33:40;93341.44;;;3.96;100.00
21658;BME280;10990;48.174;9.782;2023-02-04T06:36:07;93342.25;;;3.96;100.00
21658;BME280;10990;48.174;9.782;2023-02-04T06:38:34;93361.41;;;3.89;100.00
21658;BME280;10990;48.174;9.782;2023-02-04T06:41:02;93366.13;;;3.85;100.00
21658;BME280;10990;48.174;9.782;2023-02-04T06:43:29;93371.66;;;3.90;100.00
21658;BME280;10990;48.174;9.782;2023-02-04T06:45:55;93350.06;;;4.13;100.00
21658;BME280;10990;48.174;9.782;2023-02-04T06:48:22;93346.44;;;4.22;100.00
21658;BME280;10990;48.174;9.782;2023-02-04T06:50:49;93345.94;;;4.26;100.00
21658;BME280;10990;48.174;9.782;2023-02-04T06:53:15;93357.38;;;4.25;100.00
21658;BME280;10990;48.174;9.782;2023-02-04T06:55:43;93355.59;;;4.26;100.00
21658;BME280;10990;48.174;9.782;2023-02-04T06:58:11;93400.75;;;4.12;100.00
21658;BME280;10990;48.174;9.782;2023-02-04T07:00:38;93417.09;;;4.06;100.00
21658;BME280;10990;48.174;9.782;2023-02-04T07:03:05;93407.78;;;4.11;100.00
21658;BME280;10990;48.174;9.782;2023-02-04T07:05:32;93428.38;;;4.06;100.00
21658;BME280;10990;48.174;9.782;2023-02-04T07:07:59;93412.69;;;4.14;100.00
21658;BME280;10990;48.174;9.782;2023-02-04T07:10:25;93413.97;;;4.18;100.00
21658;BME280;10990;48.174;9.782;2023-02-04T07:12:52;93413.97;;;4.10;100.00
21658;BME280;10990;48.174;9.782;2023-02-04T07:15:20;93408.25;;;4.15;100.00
21658;BME280;10990;48.174;9.782;2023-02-04T07:17:47;93410.53;;;4.18;100.00
21658;BME280;10990;48.174;9.782;2023-02-04T07:20:14;93408.88;;;4.25;100.00
21658;BME280;10990;48.174;9.782;2023-02-04T07:22:41;93396.56;;;4.42;100.00
21658;BME280;10990;48.174;9.782;2023-02-04T07:25:08;93401.50;;;4.45;100.00
21658;BME280;10990;48.174;9.782;2023-02-04T07:27:35;93411.78;;;4.38;100.00
21658;BME280;10990;48.174;9.782;2023-02-04T07:30:03;93425.53;;;4.40;100.00
21658;BME280;10990;48.174;9.782;2023-02-04T07:32:31;93441.72;;;4.36;100.00
21658;BME280;10990;48.174;9.782;2023-02-04T07:34:58;93447.94;;;4.43;100.00
21658;BME280;10990;48.174;9.782;2023-02-04T07:37:25;93447.13;;;4.51;100.00
21658;BME280;10990;48.174;9.782;2023-02-04T07:39:52;93435.16;;;4.56;100.00
21658;BME280;10990;48.174;9.782;2023-02-04T07:42:19;93443.81;;;4.57;100.00
21658;BME280;10990;48.174;9.782;2023-02-04T07:44:52;93455.59;;;4.53;100.00
21658;BME280;10990;48.174;9.782;2023-02-04T07:47:19;93447.38;;;4.64;100.00
21658;BME280;10990;48.174;9.782;2023-02-04T07:49:47;93476.03;;;4.57;100.00
21658;BME280;10990;48.174;9.782;2023-02-04T07:52:13;93491.56;;;4.59;100.00
21658;BME280;10990;48.174;9.782;2023-02-04T07:54:40;93501.56;;;4.55;100.00
21658;BME280;10990;48.174;9.782;2023-02-04T07:57:07;93522.19;;;4.42;100.00
21658;BME280;10990;48.174;9.782;2023-02-04T07:59:33;93529.06;;;4.51;100.00
21658;BME280;10990;48.174;9.782;2023-02-04T08:02:00;93551.16;;;4.40;100.00
21658;BME280;10990;48.174;9.782;2023-02-04T08:04:27;93558.66;;;4.43;100.00
21658;BME280;10990;48.174;9.782;2023-02-04T08:06:55;93578.47;;;4.38;100.00
21658;BME280;10990;48.174;9.782;2023-02-04T08:09:22;93623.94;;;4.29;100.00
21658;BME280;10990;48.174;9.782;2023-02-04T08:11:51;93634.41;;;4.37;100.00
21658;BME280;10990;48.174;9.782;2023-02-04T08:14:18;93664.81;;;4.30;100.00
21658;BME280;10990;48.174;9.782;2023-02-04T08:16:45;93663.19;;;4.37;100.00
21658;BME280;10990;48.174;9.782;2023-02-04T08:19:11;93683.94;;;4.30;100.00
21658;BME280;10990;48.174;9.782;2023-02-04T08:21:43;93702.09;;;4.32;100.00
21658;BME280;10990;48.174;9.782;2023-02-04T08:24:11;93716.34;;;4.37;100.00
21658;BME280;10990;48.174;9.782;2023-02-04T08:26:38;93744.78;;;4.32;100.00
21658;BME280;10990;48.174;9.782;2023-02-04T08:29:04;93786.13;;;4.20;100.00
21658;BME280;10990;48.174;9.782;2023-02-04T08:31:31;93799.19;;;4.20;100.00
21658;BME280;10990;48.174;9.782;2023-02-04T08:33:58;93835.38;;;3.99;100.00
21658;BME280;10990;48.174;9.782;2023-02-04T08:36:25;93855.63;;;3.97;100.00
21658;BME280;10990;48.174;9.782;2023-02-04T08:38:52;93862.28;;;3.91;100.00
21658;BME280;10990;48.174;9.782;2023-02-04T08:41:20;93872.91;;;3.90;100.00
21658;BME280;10990;48.174;9.782;2023-02-04T08:43:47;93886.06;;;3.80;100.00
21658;BME280;10990;48.174;9.782;2023-02-04T08:46:14;93881.81;;;3.79;100.00
21658;BME280;10990;48.174;9.782;2023-02-04T08:48:41;93894.06;;;3.78;100.00
21658;BME280;10990;48.174;9.782;2023-02-04T08:51:07;93908.13;;;3.77;100.00
21658;BME280;10990;48.174;9.782;2023-02-04T08:53:34;93913.06;;;3.80;100.00
21658;BME280;10990;48.174;9.782;2023-02-04T08:56:02;93919.09;;;3.81;100.00
21658;BME280;10990;48.174;9.782;2023-02-04T08:58:30;93929.63;;;3.89;100.00
21658;BME280;10990;48.174;9.782;2023-02-04T09:00:57;93930.66;;;3.96;100.00
21658;BME280;10990;48.174;9.782;2023-02-04T09:03:24;93923.34;;;4.00;100.00
21658;BME280;10990;48.174;9.782;2023-02-04T09:05:50;93934.44;;;4.02;100.00
21658;BME280;10990;48.174;9.782;2023-02-04T09:08:17;93944.78;;;4.03;100.00
21658;BME280;10990;48.174;9.782;2023-02-04T09:10:44;93947.75;;;4.09;100.00
21658;BME280;10990;48.174;9.782;2023-02-04T09:13:10;93955.13;;;4.13;100.00
21658;BME280;10990;48.174;9.782;2023-02-04T09:15:40;93962.72;;;4.24;100.00
21658;BME280;10990;48.174;9.782;2023-02-04T09:18:06;93970.13;;;4.29;100.00
21658;BME280;10990;48.174;9.782;2023-02-04T09:20:40;93985.22;;;4.35;100.00
21658;BME280;10990;48.174;9.782;2023-02-04T09:23:07;93994.88;;;4.35;100.00
21658;BME280;10990;48.174;9.782;2023-02-04T09:25:36;93984.66;;;4.49;100.00
21658;BME280;10990;48.174;9.782;2023-02-04T09:28:04;93991.59;;;4.59;100.00
21658;BME280;10990;48.174;9.782;2023-02-04T09:30:32;94008.34;;;4.66;100.00
21658;BME280;10990;48.174;9.782;2023-02-04T09:33:01;94021.13;;;4.69;100.00
21658;BME280;10990;48.174;9.782;2023-02-04T09:35:28;94042.56;;;4.72;100.00
21658;BME280;10990;48.174;9.782;2023-02-04T09:37:55;94070.34;;;4.65;100.00
21658;BME280;10990;48.174;9.782;2023-02-04T09:40:22;94089.25;;;4.77;100.00
21658;BME280;10990;48.174;9.782;2023-02-04T09:42:52;94116.38;;;4.68;100.00
21658;BME280;10990;48.174;9.782;2023-02-04T09:45:23;94117.63;;;4.82;100.00
21658;BME280;10990;48.174;9.782;2023-02-04T09:47:52;94169.63;;;4.77;100.00
21658;BME280;10990;48.174;9.782;2023-02-04T09:50:21;94192.22;;;4.78;100.00
21658;BME280;10990;48.174;9.782;2023-02-04T09:52:50;94200.97;;;4.86;100.00
21658;BME280;10990;48.174;9.782;2023-02-04T09:55:20;94215.41;;;4.90;100.00
21658;BME280;10990;48.174;9.782;2023-02-04T09:57:48;94244.06;;;4.92;100.00
21658;BME280;10990;48.174;9.782;2023-02-04T10:00:16;94276.09;;;4.86;100.00
21658;BME280;10990;48.174;9.782;2023-02-04T10:02:44;94278.88;;;5.02;100.00
21658;BME280;10990;48.174;9.782;2023-02-04T10:05:13;94291.59;;;5.15;100.00
21658;BME280;10990;48.174;9.782;2023-02-04T10:07:42;94303.81;;;5.24;100.00
21658;BME280;10990;48.174;9.782;2023-02-04T10:10:13;94362.34;;;4.97;100.00
21658;BME280;10990;48.174;9.782;2023-02-04T10:12:43;94344.63;;;5.27;100.00
21658;BME280;10990;48.174;9.782;2023-02-04T10:15:12;94390.22;;;5.16;100.00
21658;BME280;10990;48.174;9.782;2023-02-04T10:17:40;94400.94;;;5.40;100.00
21658;BME280;10990;48.174;9.782;2023-02-04T10:20:12;94421.19;;;5.48;100.00
21658;BME280;10990;48.174;9.782;2023-02-04T10:22:39;94440.13;;;5.60;100.00
21658;BME280;10990;48.174;9.782;2023-02-04T10:25:11;94468.16;;;5.59;100.00
21658;BME280;10990;48.174;9.782;2023-02-04T10:27:46;94514.97;;;5.36;100.00
21658;BME280;10990;48.174;9.782;2023-02-04T10:30:18;94524.72;;;5.44;100.00
21658;BME280;10990;48.174;9.782;2023-02-04T10:32:46;94547.63;;;5.42;100.00
21658;BME280;10990;48.174;9.782;2023-02-04T10:35:15;94578.81;;;5.45;100.00
21658;BME280;10990;48.174;9.782;2023-02-04T10:37:42;94592.59;;;5.47;100.00
21658;BME280;10990;48.174;9.782;2023-02-04T10:40:28;94617.66;;;5.59;100.00
21658;BME280;10990;48.174;9.782;2023-02-04T10:42:55;94663.28;;;5.39;100.00
21658;BME280;10990;48.174;9.782;2023-02-04T10:45:23;94695.34;;;5.33;100.00
21658;BME280;10990;48.174;9.782;2023-02-04T10:47:52;94711.19;;;5.31;100.00
21658;BME280;10990;48.174;9.782;2023-02-04T10:50:20;94687.19;;;5.73;100.00
21658;BME280;10990;48.174;9.782;2023-02-04T10:52:50;94700.13;;;5.84;100.00
21658;BME280;10990;48.174;9.782;2023-02-04T10:55:21;94689.47;;;5.96;100.00
21658;BME280;10990;48.174;9.782;2023-02-04T10:57:51;94709.13;;;5.82;100.00
21658;BME280;10990;48.174;9.782;2023-02-04T11:00:21;94741.88;;;5.68;100.00
21658;BME280;10990;48.174;9.782;2023-02-04T11:02:53;94750.50;;;5.88;100.00
21658;BME280;10990;48.174;9.782;2023-02-04T11:05:23;94753.28;;;6.34;100.00
21658;BME280;10990;48.174;9.782;2023-02-04T11:07:54;94757.94;;;6.85;100.00
21658;BME280;10990;48.174;9.782;2023-02-04T11:10:23;94801.66;;;6.59;100.00
21658;BME280;10990;48.174;9.782;2023-02-04T11:13:02;94855.00;;;6.32;100.00
21658;BME280;10990;48.174;9.782;2023-02-04T11:15:44;94884.03;;;6.30;100.00
21658;BME280;10990;48.174;9.782;2023-02-04T11:18:24;94901.28;;;6.42;100.00
21658;BME280;10990;48.174;9.782;2023-02-04T11:20:53;94936.09;;;6.44;100.00
21658;BME280;10990;48.174;9.782;2023-02-04T11:23:33;94950.97;;;6.73;100.00
21658;BME280;10990;48.174;9.782;2023-02-04T11:26:02;94967.75;;;7.00;100.00
21658;BME280;10990;48.174;9.782;2023-02-04T11:28:44;95022.25;;;6.97;100.00
21658;BME280;10990;48.174;9.782;2023-02-04T11:31:22;95059.88;;;7.08;100.00
21658;BME280;10990;48.174;9.782;2023-02-04T11:34:10;95125.78;;;6.96;100.00
21658;BME280;10990;48.174;9.782;2023-02-04T11:36:55;95181.81;;;6.78;100.00
21658;BME280;10990;48.174;9.782;2023-02-04T11:39:27;95209.88;;;6.87;100.00
21658;BME280;10990;48.174;9.782;2023-02-04T11:41:54;95190.91;;;7.22;100.00
21658;BME280;10990;48.174;9.782;2023-02-04T11:44:22;95220.81;;;7.11;100.00
21658;BME280;10990;48.174;9.782;2023-02-04T11:46:51;95227.16;;;7.28;100.00
21658;BME280;10990;48.174;9.782;2023-02-04T11:49:21;95264.13;;;7.36;100.00
21658;BME280;10990;48.174;9.782;2023-02-04T11:51:48;95310.94;;;7.33;100.00
21658;BME280;10990;48.174;9.782;2023-02-04T11:54:16;95333.94;;;7.50;100.00
21658;BME280;10990;48.174;9.782;2023-02-04T11:56:44;95418.78;;;6.83;100.00
21658;BME280;10990;48.174;9.782;2023-02-04T11:59:12;95428.22;;;6.85;100.00
21658;BME280;10990;48.174;9.782;2023-02-04T12:01:43;95437.91;;;6.85;100.00
21658;BME280;10990;48.174;9.782;2023-02-04T12:04:22;95469.28;;;6.56;100.00
21658;BME280;10990;48.174;9.782;2023-02-04T12:06:56;95488.88;;;6.31;100.00
21658;BME280;10990;48.174;9.782;2023-02-04T12:09:26;95517.41;;;6.35;100.00
21658;BME280;10990;48.174;9.782;2023-02-04T12:11:55;95513.81;;;6.57;100.00
21658;BME280;10990;48.174;9.782;2023-02-04T12:14:27;95581.03;;;6.39;100.00
21658;BME280;10990;48.174;9.782;2023-02-04T12:16:56;95633.44;;;6.40;100.00
21658;BME280;10990;48.174;9.782;2023-02-04T12:19:23;95639.13;;;6.57;100.00
21658;BME280;10990;48.174;9.782;2023-02-04T12:21:50;95657.19;;;6.39;100.00
21658;BME280;10990;48.174;9.782;2023-02-04T12:24:17;95677.78;;;6.34;100.00
21658;BME280;10990;48.174;9.782;2023-02-04T12:26:43;95669.50;;;6.38;100.00
21658;BME280;10990;48.174;9.782;2023-02-04T12:29:10;95687.59;;;6.20;100.00
21658;BME280;10990;48.174;9.782;2023-02-04T12:31:37;95687.03;;;5.94;100.00
21658;BME280;10990;48.174;9.782;2023-02-04T12:34:05;95657.66;;;6.00;100.00
21658;BME280;10990;48.174;9.782;2023-02-04T12:36:32;95653.72;;;5.95;100.00
21658;BME280;10990;48.174;9.782;2023-02-04T12:38:58;95671.13;;;5.96;100.00
21658;BME280;10990;48.174;9.782;2023-02-04T12:41:27;95682.34;;;5.87;100.00
21658;BME280;10990;48.174;9.782;2023-02-04T12:43:53;95686.88;;;5.84;100.00
21658;BME280;10990;48.174;9.782;2023-02-04T12:46:20;95716.69;;;5.72;100.00
21658;BME280;10990;48.174;9.782;2023-02-04T12:48:47;95715.25;;;5.91;100.00
21658;BME280;10990;48.174;9.782;2023-02-04T12:51:15;95753.22;;;5.87;100.00
21658;BME280;10990;48.174;9.782;2023-02-04T12:53:42;95781.00;;;5.89;100.00
21658;BME280;10990;48.174;9.782;2023-02-04T12:56:09;95794.38;;;5.86;100.00
21658;BME280;10990;48.174;9.782;2023-02-04T12:58:35;95826.56;;;5.88;100.00
21658;BME280;10990;48.174;9.782;2023-02-04T13:01:02;95850.19;;;5.88;100.00
21658;BME280;10990;48.174;9.782;2023-02-04T13:03:29;95866.25;;;5.96;100.00